Aeroporto :
LOGIN :

Iscrizione | Disclaimer

   EN    FR    IT 

 










Sommario :    VFR   VFR Marginale   IFR   IFR Intensivo   IFR Molto Intensivo
Visibilità : 
Base nubi : 
>= 8 km
>= 3000ft
5 / 8 km
1000 / 3000 ft
1500m / 5 km
500 / 1000 ft
800 / 1500m
200 / 500 ft
< 800m
< 200 ft
Simboli :   Temporali  Nebbia  Neve Forte  Precipitazioni Forti  Vento > 20 kt
SIGMETs :   Varie  Temporali  Ghiacco  Turbolenza  Onda orograficha  Ceneri Vulcaniche






- Altitudine del aeroporto : 55 ft


EGNO - Warton Preston

ULTIMO METAR :
  • 221150Z 20009KT 9999 FEW023 12/08 Q1021

METARs OBSOLETI :
  • 221120Z 20009KT 9999 FEW025 11/08 Q1021
  • 221050Z 20007KT 9999 FEW023 10/08 Q1021
  • 221020Z 21006KT 9999 FEW024 10/08 Q1021
  • 220950Z 20007KT 9999 FEW026 09/07 Q1021
  • 220920Z 20006KT 9999 SCT026 09/07 Q1021

TAF TAF EGNO
Valido dal 22 a 12 ore il 22 a 18 ore UTC


221100Z 2212/2218 20007KT 9999 FEW025
PROB30
TEMPO 2212/2218 24015G25KT
ATIS : +44 1772 856 060



MetMap, La meteo Aeronautica in un colpo d'occhio ! - Copyright ORBIFLY Dicembre 2007 - Disclaimer

ORBIFLY MET'MAP TEAM :

Programmazione e sviluppo : Alexandra Zaïnal
Concezione e sviluppo : Baudouin d'Aumeries
Co-Programmazione e sviluppo : Marc-Olivier Méhu
Supporto tecnico e logistico : Manuel Goepfert
Aiuto per la traduzione : Arnaldo La Scala

Contatto : metmap@orbifly.com




FONTI E CREDITI :

   NOAA